Time;durP1;ratioP1;P1;durP2;ratioP2;P2;SDS_P1;SDS_P2;PMS_P1;PMS_P2;Temp;Humidity;BMP_temperature;BMP_pressure;BME280_temperature;BME280_humidity;BME280_pressure;Samples;Min_cycle;Max_cycle;Signal;HPM_P1;HPM_P2
2022/05/01 00:00:23;;;;;;;12.23;8.47;;;;;;;;;;5038355;28;20210;-65
2022/05/01 00:02:48;;;;;;;9.13;6.87;;;;;;;;;;5038469;28;20182;-65
2022/05/01 00:05:15;;;;;;;9.63;7.10;;;;;;;;;;5056263;28;20186;-65
2022/05/01 00:07:41;;;;;;;8.57;6.13;;;;;;;;;;5056369;28;20238;-65
2022/05/01 00:10:09;;;;;;;10.83;7.70;;;;;;;;;;5055982;28;20205;-66
2022/05/01 00:12:35;;;;;;;10.00;7.30;;;;;;;;;;5056265;28;20261;-64
2022/05/01 00:15:01;;;;;;;10.17;7.83;;;;;;;;;;5055321;28;20255;-65
2022/05/01 00:17:27;;;;;;;10.77;7.03;;;;;;;;;;5056084;28;20179;-65
2022/05/01 00:19:54;;;;;;;11.60;8.50;;;;;;;;;;5037781;28;20340;-65
2022/05/01 00:22:20;;;;;;;11.17;8.73;;;;;;;;;;5056295;28;20167;-65
2022/05/01 00:24:46;;;;;;;8.60;6.80;;;;;;;;;;5055920;28;20183;-66
2022/05/01 00:27:12;;;;;;;9.30;6.87;;;;;;;;;;5056010;28;20214;-65
2022/05/01 00:29:38;;;;;;;9.33;7.63;;;;;;;;;;5037942;28;20588;-65
2022/05/01 00:32:05;;;;;;;9.77;7.60;;;;;;;;;;5055837;28;20188;-65
2022/05/01 00:37:18;;;;;;;12.27;7.20;;;;;;;;;;5056118;28;20309;-65
2022/05/01 00:39:44;;;;;;;10.00;7.33;;;;;;;;;;5037995;28;21918;-66
2022/05/01 00:42:10;;;;;;;9.83;7.67;;;;;;;;;;5056035;28;20194;-65
2022/05/01 00:44:36;;;;;;;8.77;6.87;;;;;;;;;;5056057;28;20175;-66
2022/05/01 00:47:02;;;;;;;9.77;7.67;;;;;;;;;;5055710;28;20233;-65
2022/05/01 00:49:28;;;;;;;10.83;7.77;;;;;;;;;;5037559;28;20209;-65
2022/05/01 00:52:05;;;;;;;10.23;7.50;;;;;;;;;;5055569;28;20170;-65
2022/05/01 00:54:32;;;;;;;13.00;7.63;;;;;;;;;;5055535;28;20190;-65
2022/05/01 00:56:59;;;;;;;11.57;7.67;;;;;;;;;;5055921;28;20189;-65
2022/05/01 00:59:26;;;;;;;10.77;7.93;;;;;;;;;;5055870;28;20209;-65
2022/05/01 01:01:52;;;;;;;11.93;7.80;;;;;;;;;;5055478;28;20555;-65
2022/05/01 01:04:18;;;;;;;9.10;6.83;;;;;;;;;;5037426;28;20277;-65
2022/05/01 01:06:44;;;;;;;8.80;7.53;;;;;;;;;;5037232;28;20206;-65
2022/05/01 01:11:43;;;;;;;9.63;7.83;;;;;;;;;;5055233;22;20231;-64
2022/05/01 01:14:10;;;;;;;13.23;7.37;;;;;;;;;;5035167;28;20243;-64
2022/05/01 01:16:37;;;;;;;11.07;7.70;;;;;;;;;;5035087;28;20585;-64
2022/05/01 01:19:04;;;;;;;9.40;7.80;;;;;;;;;;5034773;28;20183;-64
2022/05/01 01:21:30;;;;;;;10.53;7.30;;;;;;;;;;5016871;28;20210;-64
2022/05/01 01:23:57;;;;;;;10.13;7.37;;;;;;;;;;5034849;28;20709;-64
2022/05/01 01:26:23;;;;;;;11.70;7.90;;;;;;;;;;5034593;28;20183;-64
2022/05/01 01:28:49;;;;;;;8.70;7.20;;;;;;;;;;5034911;28;20175;-64
2022/05/01 01:34:12;;;;;;;9.60;7.70;;;;;;;;;;5035071;28;20271;-64
2022/05/01 01:36:38;;;;;;;10.47;8.10;;;;;;;;;;5017037;28;20268;-64
2022/05/01 01:39:05;;;;;;;10.47;8.33;;;;;;;;;;5035336;28;20175;-64
2022/05/01 01:41:31;;;;;;;9.30;7.70;;;;;;;;;;5036404;28;20265;-65
2022/05/01 01:43:57;;;;;;;11.10;7.77;;;;;;;;;;5037018;28;20631;-64
2022/05/01 01:46:24;;;;;;;10.30;7.67;;;;;;;;;;5018962;28;20183;-64
2022/05/01 01:48:53;;;;;;;10.67;7.07;;;;;;;;;;5017986;28;20558;-64
2022/05/01 01:51:19;;;;;;;9.43;8.07;;;;;;;;;;5034550;28;20195;-65
2022/05/01 01:53:45;;;;;;;8.70;7.43;;;;;;;;;;5016542;28;20633;-65
2022/05/01 01:56:11;;;;;;;8.90;7.30;;;;;;;;;;5034464;28;20186;-64
2022/05/01 01:58:39;;;;;;;13.23;7.93;;;;;;;;;;5016361;28;20559;-65
2022/05/01 02:01:06;;;;;;;9.93;7.60;;;;;;;;;;5016192;28;20207;-65
2022/05/01 02:03:33;;;;;;;9.37;7.70;;;;;;;;;;5034022;28;20647;-64
2022/05/01 02:05:59;;;;;;;10.27;7.53;;;;;;;;;;5016337;28;20190;-65
2022/05/01 02:08:25;;;;;;;11.87;8.57;;;;;;;;;;5016143;28;20206;-64
2022/05/01 02:10:51;;;;;;;14.57;8.87;;;;;;;;;;5016025;28;20269;-64
2022/05/01 02:13:17;;;;;;;13.60;8.23;;;;;;;;;;5033873;28;20175;-65
2022/05/01 02:15:43;;;;;;;8.93;7.30;;;;;;;;;;5033959;28;20554;-65
2022/05/01 02:18:09;;;;;;;9.30;7.90;;;;;;;;;;5034315;28;20179;-64
2022/05/01 02:23:21;;;;;;;10.67;7.70;;;;;;;;;;5034874;28;20682;-64
2022/05/01 02:25:48;;;;;;;9.00;7.70;;;;;;;;;;5016388;28;20179;-64
2022/05/01 02:28:14;;;;;;;11.57;8.50;;;;;;;;;;5016528;28;20229;-64
2022/05/01 02:30:40;;;;;;;10.83;8.77;;;;;;;;;;5016004;28;20685;-64
2022/05/01 02:33:07;;;;;;;12.93;8.37;;;;;;;;;;5016045;28;20194;-64
2022/05/01 02:35:34;;;;;;;10.30;8.43;;;;;;;;;;5015951;28;20226;-64
2022/05/01 02:38:01;;;;;;;11.67;8.00;;;;;;;;;;5015445;28;20274;-64
2022/05/01 02:40:29;;;;;;;11.03;8.10;;;;;;;;;;5015733;28;20211;-65
2022/05/01 02:42:56;;;;;;;12.13;8.70;;;;;;;;;;5015945;28;20183;-65
2022/05/01 02:45:22;;;;;;;10.50;8.00;;;;;;;;;;5015739;28;20182;-64
2022/05/01 02:47:48;;;;;;;10.63;7.97;;;;;;;;;;5015682;28;20290;-64
2022/05/01 02:50:14;;;;;;;12.00;8.07;;;;;;;;;;5033345;28;20281;-64
2022/05/01 02:52:40;;;;;;;11.83;8.10;;;;;;;;;;5033191;28;20183;-65
2022/05/01 02:55:06;;;;;;;13.87;8.90;;;;;;;;;;5015637;28;20195;-64
2022/05/01 02:57:33;;;;;;;10.63;8.40;;;;;;;;;;5033209;28;20377;-65
2022/05/01 02:59:59;;;;;;;13.23;9.83;;;;;;;;;;5033127;28;20222;-65
2022/05/01 03:02:25;;;;;;;12.23;8.83;;;;;;;;;;5015436;28;20257;-65
2022/05/01 03:04:51;;;;;;;12.60;8.60;;;;;;;;;;5015553;28;20256;-65
2022/05/01 03:07:17;;;;;;;11.73;8.63;;;;;;;;;;5015305;28;20225;-64
2022/05/01 03:09:43;;;;;;;12.10;8.67;;;;;;;;;;5032943;28;20288;-64
2022/05/01 03:12:09;;;;;;;11.53;8.40;;;;;;;;;;5033423;28;20230;-65
2022/05/01 03:14:35;;;;;;;11.87;8.90;;;;;;;;;;5033006;28;20640;-65
2022/05/01 03:17:01;;;;;;;10.90;8.67;;;;;;;;;;5015378;28;20194;-65
2022/05/01 03:22:13;;;;;;;13.80;8.10;;;;;;;;;;5033024;28;20186;-64
2022/05/01 03:24:39;;;;;;;10.00;8.23;;;;;;;;;;5033014;28;20176;-65
2022/05/01 03:27:05;;;;;;;12.10;9.17;;;;;;;;;;5033415;28;20221;-65
2022/05/01 03:29:32;;;;;;;11.77;8.87;;;;;;;;;;5015316;28;20182;-64
2022/05/01 03:31:58;;;;;;;10.10;8.40;;;;;;;;;;5033016;28;20175;-65
2022/05/01 03:34:26;;;;;;;12.93;8.97;;;;;;;;;;5032838;28;20182;-65
2022/05/01 03:36:53;;;;;;;11.93;8.60;;;;;;;;;;5015246;28;20187;-65
2022/05/01 03:39:19;;;;;;;12.00;9.00;;;;;;;;;;5032817;28;20553;-65
2022/05/01 03:41:45;;;;;;;15.53;9.17;;;;;;;;;;5015111;28;20194;-65
2022/05/01 03:44:11;;;;;;;11.80;8.57;;;;;;;;;;5015081;28;20191;-65
2022/05/01 03:46:38;;;;;;;13.23;9.00;;;;;;;;;;5033396;28;20183;-65
2022/05/01 03:49:04;;;;;;;12.20;8.93;;;;;;;;;;5038402;28;20185;-65
2022/05/01 03:51:31;;;;;;;12.70;8.47;;;;;;;;;;5041964;28;20202;-65
2022/05/01 03:53:58;;;;;;;16.40;9.33;;;;;;;;;;5023674;28;20179;-65
2022/05/01 03:56:26;;;;;;;11.97;9.40;;;;;;;;;;5040666;28;20180;-66
2022/05/01 03:58:52;;;;;;;13.07;9.10;;;;;;;;;;5020695;28;20266;-65
2022/05/01 04:01:18;;;;;;;12.70;8.57;;;;;;;;;;5037622;28;20272;-65
2022/05/01 04:03:43;;;;;;;14.60;8.90;;;;;;;;;;5018975;28;20179;-65
2022/05/01 04:06:09;;;;;;;12.63;8.83;;;;;;;;;;5018553;28;20179;-65
2022/05/01 04:08:37;;;;;;;11.37;7.97;;;;;;;;;;5019199;28;20661;-66
2022/05/01 04:11:03;;;;;;;11.70;9.10;;;;;;;;;;5018126;28;20219;-65
2022/05/01 04:13:30;;;;;;;11.03;8.70;;;;;;;;;;5036209;28;20266;-65
2022/05/01 04:15:56;;;;;;;11.63;9.50;;;;;;;;;;5036371;28;20183;-65
2022/05/01 04:18:22;;;;;;;13.10;8.73;;;;;;;;;;5036078;28;20179;-65
2022/05/01 04:20:50;;;;;;;12.50;9.40;;;;;;;;;;5036255;28;20217;-65
2022/05/01 04:23:16;;;;;;;11.60;9.57;;;;;;;;;;5036179;28;20206;-65
2022/05/01 04:25:42;;;;;;;17.40;10.40;;;;;;;;;;5036324;28;20233;-66
2022/05/01 04:28:08;;;;;;;13.70;9.77;;;;;;;;;;5035734;28;20611;-66
2022/05/01 04:30:35;;;;;;;13.10;9.33;;;;;;;;;;5017879;28;20195;-65
2022/05/01 04:33:02;;;;;;;13.00;9.13;;;;;;;;;;5036594;28;20262;-66
2022/05/01 04:35:29;;;;;;;14.77;9.47;;;;;;;;;;5017895;28;20237;-65
2022/05/01 04:37:59;;;;;;;11.23;8.47;;;;;;;;;;5035674;28;20230;-65
2022/05/01 04:40:25;;;;;;;13.33;8.90;;;;;;;;;;5017846;28;20294;-65
2022/05/01 04:42:51;;;;;;;12.30;9.77;;;;;;;;;;5035602;28;20643;-66
2022/05/01 04:45:17;;;;;;;12.33;8.97;;;;;;;;;;5035635;28;20229;-65
2022/05/01 04:47:43;;;;;;;12.93;9.23;;;;;;;;;;5035424;28;20286;-65
2022/05/01 04:50:09;;;;;;;12.87;9.17;;;;;;;;;;5035684;28;20195;-65
2022/05/01 04:52:36;;;;;;;16.97;9.67;;;;;;;;;;5017612;28;20179;-65
2022/05/01 04:55:02;;;;;;;11.50;9.37;;;;;;;;;;5035355;28;20179;-67
2022/05/01 04:57:29;;;;;;;15.10;10.37;;;;;;;;;;5035349;28;20306;-66
2022/05/01 04:59:55;;;;;;;15.20;10.20;;;;;;;;;;5035082;28;20207;-65
2022/05/01 05:02:21;;;;;;;11.97;9.43;;;;;;;;;;5035308;28;20558;-66
2022/05/01 05:04:48;;;;;;;13.47;9.23;;;;;;;;;;5035503;28;20559;-65
2022/05/01 05:07:14;;;;;;;13.73;9.53;;;;;;;;;;5017410;28;20199;-65
2022/05/01 05:09:55;;;;;;;11.00;8.47;;;;;;;;;;5034855;28;20199;-66
2022/05/01 05:12:22;;;;;;;12.57;9.23;;;;;;;;;;5035161;28;20174;-66
2022/05/01 05:14:51;;;;;;;11.80;8.67;;;;;;;;;;5017279;28;20177;-66
2022/05/01 05:17:18;;;;;;;10.23;8.63;;;;;;;;;;5034988;28;20206;-66
2022/05/01 05:19:44;;;;;;;12.80;9.53;;;;;;;;;;5035215;28;20201;-65
2022/05/01 05:22:10;;;;;;;14.53;9.90;;;;;;;;;;5017034;28;20175;-65
2022/05/01 05:24:36;;;;;;;11.93;9.17;;;;;;;;;;5034751;28;20195;-66
2022/05/01 05:27:02;;;;;;;10.33;8.53;;;;;;;;;;5034614;28;20195;-65
2022/05/01 05:29:28;;;;;;;12.17;8.90;;;;;;;;;;5034676;28;20179;-65
2022/05/01 05:31:54;;;;;;;10.83;8.73;;;;;;;;;;5034592;28;20635;-65
2022/05/01 05:34:20;;;;;;;12.87;8.83;;;;;;;;;;5016925;28;20184;-65
2022/05/01 05:36:46;;;;;;;11.47;7.83;;;;;;;;;;5034615;28;20178;-66
2022/05/01 05:39:12;;;;;;;12.07;9.50;;;;;;;;;;5034782;28;20253;-65
2022/05/01 05:41:38;;;;;;;11.57;8.77;;;;;;;;;;5034513;28;20227;-65
2022/05/01 05:44:04;;;;;;;14.50;8.93;;;;;;;;;;5017012;28;20214;-66
2022/05/01 05:46:30;;;;;;;11.47;8.87;;;;;;;;;;5016535;28;20187;-65
2022/05/01 05:48:56;;;;;;;11.13;8.30;;;;;;;;;;5034501;28;20266;-65
2022/05/01 05:51:22;;;;;;;11.20;8.97;;;;;;;;;;5034258;28;20249;-65
2022/05/01 05:53:52;;;;;;;10.47;8.20;;;;;;;;;;5016621;28;20635;-65
2022/05/01 05:56:18;;;;;;;9.47;8.50;;;;;;;;;;5016449;28;20232;-66
2022/05/01 05:58:44;;;;;;;11.67;7.87;;;;;;;;;;5034307;28;20542;-65
2022/05/01 06:01:10;;;;;;;11.27;7.63;;;;;;;;;;5016256;28;20663;-65
2022/05/01 06:03:37;;;;;;;9.03;7.30;;;;;;;;;;5034301;28;20182;-65
2022/05/01 06:06:03;;;;;;;9.60;7.90;;;;;;;;;;5033996;28;20183;-65
2022/05/01 06:08:29;;;;;;;10.20;7.87;;;;;;;;;;5033927;28;20607;-65
2022/05/01 06:10:55;;;;;;;8.30;7.17;;;;;;;;;;5015623;28;20211;-65
2022/05/01 06:13:21;;;;;;;11.07;7.43;;;;;;;;;;5015829;28;20193;-65
2022/05/01 06:15:48;;;;;;;9.50;7.43;;;;;;;;;;5016095;28;20186;-65
2022/05/01 06:18:14;;;;;;;9.30;6.57;;;;;;;;;;5034073;28;20628;-65
2022/05/01 06:20:40;;;;;;;8.27;6.83;;;;;;;;;;5033702;28;20206;-65
2022/05/01 06:23:06;;;;;;;11.90;7.83;;;;;;;;;;5034031;28;20179;-65
2022/05/01 06:25:32;;;;;;;9.13;7.43;;;;;;;;;;5016031;28;20535;-65
2022/05/01 06:27:58;;;;;;;10.87;7.23;;;;;;;;;;5033707;28;20203;-65
2022/05/01 06:30:24;;;;;;;9.53;7.33;;;;;;;;;;5033816;28;20329;-65
2022/05/01 06:32:50;;;;;;;9.73;6.80;;;;;;;;;;5033975;28;20178;-65
2022/05/01 06:35:16;;;;;;;9.53;7.40;;;;;;;;;;5033895;28;20182;-65
2022/05/01 06:37:43;;;;;;;12.20;6.80;;;;;;;;;;5015981;28;20276;-66
2022/05/01 06:40:09;;;;;;;10.67;6.80;;;;;;;;;;5034470;28;20232;-65
2022/05/01 06:42:35;;;;;;;7.63;6.30;;;;;;;;;;5017344;28;20183;-65
2022/05/01 06:45:01;;;;;;;10.83;7.00;;;;;;;;;;5034519;28;20176;-65
2022/05/01 06:47:27;;;;;;;7.93;5.90;;;;;;;;;;5016299;28;20209;-65
2022/05/01 06:49:53;;;;;;;7.67;6.07;;;;;;;;;;5034983;28;20187;-65
2022/05/01 06:52:20;;;;;;;8.27;5.73;;;;;;;;;;5016416;28;20171;-65
2022/05/01 06:54:46;;;;;;;7.63;6.20;;;;;;;;;;5034385;28;20171;-65
2022/05/01 06:57:12;;;;;;;8.40;6.43;;;;;;;;;;5033703;28;20179;-65
2022/05/01 06:59:37;;;;;;;6.67;5.97;;;;;;;;;;5033265;28;20175;-65
2022/05/01 07:02:03;;;;;;;6.47;5.67;;;;;;;;;;5033813;28;20515;-65
2022/05/01 07:04:30;;;;;;;9.67;6.83;;;;;;;;;;5033354;28;20176;-65
2022/05/01 07:06:55;;;;;;;9.07;7.00;;;;;;;;;;5015483;28;20247;-65
2022/05/01 07:09:21;;;;;;;8.53;6.83;;;;;;;;;;5033530;28;20211;-65
2022/05/01 07:11:47;;;;;;;9.57;7.30;;;;;;;;;;5015225;28;20589;-66
2022/05/01 07:14:13;;;;;;;10.33;7.60;;;;;;;;;;5015656;28;20267;-66
2022/05/01 07:16:39;;;;;;;9.40;7.17;;;;;;;;;;5033245;28;20655;-65
2022/05/01 07:19:06;;;;;;;10.73;7.80;;;;;;;;;;5033379;28;20738;-65
2022/05/01 07:21:32;;;;;;;9.17;7.47;;;;;;;;;;5015375;28;20230;-65
2022/05/01 07:23:58;;;;;;;11.43;8.10;;;;;;;;;;5036335;28;20222;-65
2022/05/01 07:26:25;;;;;;;8.93;7.77;;;;;;;;;;5037983;28;20210;-65
2022/05/01 07:28:51;;;;;;;12.00;7.93;;;;;;;;;;5020546;28;20602;-65
2022/05/01 07:31:17;;;;;;;10.13;7.73;;;;;;;;;;5037894;28;20202;-65
2022/05/01 07:33:43;;;;;;;10.63;7.50;;;;;;;;;;5038060;28;20179;-64
2022/05/01 07:36:09;;;;;;;15.23;8.87;;;;;;;;;;5019555;28;20294;-64
2022/05/01 07:38:35;;;;;;;11.17;8.20;;;;;;;;;;5037341;28;20179;-63
2022/05/01 07:41:01;;;;;;;12.60;8.73;;;;;;;;;;5019461;28;20678;-65
2022/05/01 07:43:27;;;;;;;9.47;7.77;;;;;;;;;;5037153;28;20667;-64
2022/05/01 07:45:53;;;;;;;11.23;7.93;;;;;;;;;;5037051;28;20552;-65
2022/05/01 07:48:20;;;;;;;12.53;8.70;;;;;;;;;;5036889;28;20195;-65
2022/05/01 07:50:46;;;;;;;12.37;8.07;;;;;;;;;;5019378;28;20210;-65
2022/05/01 07:53:13;;;;;;;12.70;7.33;;;;;;;;;;5019277;28;20639;-65
2022/05/01 07:55:39;;;;;;;9.73;7.10;;;;;;;;;;5019124;28;20631;-65
2022/05/01 07:58:05;;;;;;;10.03;7.90;;;;;;;;;;5036779;28;20183;-65
2022/05/01 08:00:31;;;;;;;9.30;6.87;;;;;;;;;;5037042;28;20285;-65
2022/05/01 08:05:42;;;;;;;7.80;6.37;;;;;;;;;;5038671;28;20255;-65
2022/05/01 08:08:08;;;;;;;7.80;6.60;;;;;;;;;;5041633;28;20238;-64
2022/05/01 08:10:34;;;;;;;7.57;6.73;;;;;;;;;;5040916;28;20211;-65
2022/05/01 08:13:00;;;;;;;8.60;6.50;;;;;;;;;;5041726;28;20179;-65
2022/05/01 08:15:26;;;;;;;8.90;6.10;;;;;;;;;;5041014;28;20176;-65
2022/05/01 08:17:52;;;;;;;9.63;6.10;;;;;;;;;;5019163;28;20198;-65
2022/05/01 08:23:06;;;;;;;8.07;6.40;;;;;;;;;;5036937;28;20312;-66
2022/05/01 08:25:33;;;;;;;7.50;5.83;;;;;;;;;;5018263;28;20717;-65
2022/05/01 08:27:59;;;;;;;8.07;6.67;;;;;;;;;;5035831;28;20199;-67
2022/05/01 08:30:25;;;;;;;7.17;6.47;;;;;;;;;;5018321;28;20200;-66
2022/05/01 08:32:52;;;;;;;9.57;6.53;;;;;;;;;;5018246;28;20202;-66
2022/05/01 08:35:17;;;;;;;14.13;7.87;;;;;;;;;;5035341;28;20237;-65
2022/05/01 08:37:43;;;;;;;9.83;7.33;;;;;;;;;;5018064;28;20187;-65
2022/05/01 08:40:10;;;;;;;8.77;6.97;;;;;;;;;;5017979;28;20214;-66
2022/05/01 08:42:36;;;;;;;8.23;6.53;;;;;;;;;;5033703;23;20334;-66
2022/05/01 08:45:03;;;;;;;8.70;6.57;;;;;;;;;;5035533;28;20176;-66
2022/05/01 08:47:35;;;;;;;11.17;7.17;;;;;;;;;;5035782;28;20570;-66
2022/05/01 08:50:01;;;;;;;10.03;6.90;;;;;;;;;;5035796;28;20537;-66
2022/05/01 08:52:29;;;;;;;9.37;6.77;;;;;;;;;;5035474;28;20245;-66
2022/05/01 08:54:55;;;;;;;9.50;7.23;;;;;;;;;;5035316;28;20254;-67
2022/05/01 08:57:21;;;;;;;8.80;6.60;;;;;;;;;;5017645;28;20629;-66
2022/05/01 08:59:51;;;;;;;9.60;6.87;;;;;;;;;;5035389;28;20182;-66
2022/05/01 09:02:17;;;;;;;9.43;6.83;;;;;;;;;;5035398;28;20666;-66
2022/05/01 09:04:43;;;;;;;7.47;5.90;;;;;;;;;;5035239;28;20179;-66
2022/05/01 09:07:10;;;;;;;8.13;5.93;;;;;;;;;;5017278;28;20238;-66
2022/05/01 09:09:36;;;;;;;8.20;5.67;;;;;;;;;;5035273;28;20175;-66
2022/05/01 09:14:48;;;;;;;9.47;5.77;;;;;;;;;;5035313;28;20558;-66
2022/05/01 09:17:21;;;;;;;5.53;5.00;;;;;;;;;;5035009;28;20282;-66
2022/05/01 09:19:51;;;;;;;6.50;5.80;;;;;;;;;;5017247;28;20254;-65
2022/05/01 09:22:18;;;;;;;5.87;5.20;;;;;;;;;;5034793;28;20206;-65
2022/05/01 09:24:44;;;;;;;6.47;5.63;;;;;;;;;;5035028;28;20176;-66
2022/05/01 09:27:42;;;;;;;8.30;6.07;;;;;;;;;;5017229;28;20583;-66
2022/05/01 09:30:08;;;;;;;8.10;6.50;;;;;;;;;;4974917;28;20277;-62
2022/05/01 09:32:37;;;;;;;9.43;6.00;;;;;;;;;;5035284;28;20201;-64
2022/05/01 09:35:03;;;;;;;8.27;6.33;;;;;;;;;;5034935;28;20176;-65
2022/05/01 09:37:29;;;;;;;9.90;6.00;;;;;;;;;;5017048;28;20191;-65
2022/05/01 09:39:55;;;;;;;6.17;5.20;;;;;;;;;;5034906;28;20233;-68
2022/05/01 09:42:24;;;;;;;7.10;6.00;;;;;;;;;;5034655;28;20210;-65
2022/05/01 09:45:14;;;;;;;7.10;6.33;;;;;;;;;;5034823;28;20210;-66
2022/05/01 09:47:42;;;;;;;7.33;5.67;;;;;;;;;;5033936;28;20261;-64
2022/05/01 09:50:08;;;;;;;6.57;5.53;;;;;;;;;;5016704;28;20190;-65
2022/05/01 09:52:56;;;;;;;8.17;6.20;;;;;;;;;;5034365;28;20202;-66
2022/05/01 09:55:22;;;;;;;6.50;5.53;;;;;;;;;;5017074;28;20182;-65
2022/05/01 09:57:48;;;;;;;7.23;5.60;;;;;;;;;;5016999;28;20183;-65
2022/05/01 10:00:14;;;;;;;5.77;5.17;;;;;;;;;;5034573;28;20643;-66
2022/05/01 10:02:40;;;;;;;7.13;6.13;;;;;;;;;;5034655;28;20199;-64
2022/05/01 10:05:08;;;;;;;8.80;5.57;;;;;;;;;;5034184;28;20183;-66
2022/05/01 10:07:36;;;;;;;8.53;5.87;;;;;;;;;;5034110;28;20210;-66
2022/05/01 10:10:03;;;;;;;6.60;5.50;;;;;;;;;;5034096;28;20175;-65
2022/05/01 10:12:30;;;;;;;8.53;5.70;;;;;;;;;;5034166;28;20195;-66
2022/05/01 10:14:57;;;;;;;6.77;5.50;;;;;;;;;;5034248;28;20187;-65
2022/05/01 10:17:23;;;;;;;10.83;5.70;;;;;;;;;;5034116;28;20262;-65
2022/05/01 10:19:49;;;;;;;8.43;5.87;;;;;;;;;;5034341;28;20259;-65
2022/05/01 10:22:15;;;;;;;8.13;6.50;;;;;;;;;;5034046;28;20206;-65
2022/05/01 10:24:41;;;;;;;6.40;5.53;;;;;;;;;;5034318;28;20187;-64
2022/05/01 10:27:25;;;;;;;9.00;6.80;;;;;;;;;;5034496;28;20199;-65
2022/05/01 10:32:39;;;;;;;6.90;5.47;;;;;;;;;;5037323;28;20205;-63
2022/05/01 10:35:18;;;;;;;8.57;6.50;;;;;;;;;;5035362;28;20179;-65
2022/05/01 10:38:03;;;;;;;7.90;6.00;;;;;;;;;;5034746;28;20183;-64
2022/05/01 10:40:44;;;;;;;7.77;6.57;;;;;;;;;;5034372;28;20179;-65
2022/05/01 10:43:27;;;;;;;9.53;6.27;;;;;;;;;;5034048;28;20230;-64
2022/05/01 10:45:53;;;;;;;7.70;5.63;;;;;;;;;;5016366;28;20241;-65
2022/05/01 10:48:38;;;;;;;8.43;6.57;;;;;;;;;;5034074;28;20203;-65
2022/05/01 10:51:23;;;;;;;9.80;7.00;;;;;;;;;;5015829;28;20179;-64
2022/05/01 10:54:21;;;;;;;8.23;6.27;;;;;;;;;;5033509;28;20182;-64
2022/05/01 10:56:51;;;;;;;8.10;6.90;;;;;;;;;;5033492;28;20203;-65
2022/05/01 10:59:33;;;;;;;7.10;5.73;;;;;;;;;;5015398;28;20584;-65
2022/05/01 11:02:22;;;;;;;7.83;6.47;;;;;;;;;;5015737;28;20198;-65
2022/05/01 11:04:48;;;;;;;9.20;6.90;;;;;;;;;;4994475;28;20276;-64
2022/05/01 11:07:16;;;;;;;9.57;7.57;;;;;;;;;;5033303;28;20239;-64
2022/05/01 11:09:44;;;;;;;7.53;6.70;;;;;;;;;;5033405;28;20233;-64
2022/05/01 11:12:13;;;;;;;9.13;6.37;;;;;;;;;;5034030;28;20187;-65
2022/05/01 11:14:39;;;;;;;9.37;6.60;;;;;;;;;;5033646;28;20574;-64
2022/05/01 11:17:06;;;;;;;9.17;7.47;;;;;;;;;;5033670;28;20175;-66
2022/05/01 11:19:52;;;;;;;8.13;6.80;;;;;;;;;;5033620;28;20233;-65
2022/05/01 11:22:27;;;;;;;10.00;7.60;;;;;;;;;;5033232;28;20291;-65
2022/05/01 11:24:52;;;;;;;11.57;8.67;;;;;;;;;;5015759;28;20190;-64
2022/05/01 11:27:21;;;;;;;12.33;9.30;;;;;;;;;;5015742;28;20803;-64
2022/05/01 11:30:06;;;;;;;9.80;7.73;;;;;;;;;;5015533;28;20183;-65
2022/05/01 11:32:42;;;;;;;8.53;7.60;;;;;;;;;;5032926;28;20776;-65
2022/05/01 11:35:08;;;;;;;11.57;9.17;;;;;;;;;;5033446;28;20196;-65
2022/05/01 11:37:46;;;;;;;10.73;9.60;;;;;;;;;;5033079;28;20183;-65
2022/05/01 11:40:21;;;;;;;11.07;8.37;;;;;;;;;;5015292;28;20186;-65
2022/05/01 11:42:48;;;;;;;10.23;8.60;;;;;;;;;;5032811;28;20302;-65
2022/05/01 11:45:14;;;;;;;10.13;9.07;;;;;;;;;;5033200;28;20567;-66
2022/05/01 11:47:40;;;;;;;9.77;8.73;;;;;;;;;;5033208;28;20195;-66
2022/05/01 11:50:07;;;;;;;9.90;8.30;;;;;;;;;;5032955;28;20182;-67
2022/05/01 11:52:37;;;;;;;10.17;7.70;;;;;;;;;;5015123;28;20203;-66
2022/05/01 11:55:07;;;;;;;10.17;8.17;;;;;;;;;;5015257;28;20183;-66
2022/05/01 12:03:07;;;;;;;13.37;9.63;;;;;;;;;;5033276;28;20222;-66
2022/05/01 12:05:43;;;;;;;12.03;9.83;;;;;;;;;;5033140;28;20183;-66
2022/05/01 12:08:09;;;;;;;11.00;9.73;;;;;;;;;;5015378;28;20232;-66
2022/05/01 12:10:39;;;;;;;11.47;10.23;;;;;;;;;;5035249;28;20250;-69
2022/05/01 12:13:18;;;;;;;10.87;9.37;;;;;;;;;;5018474;28;20223;-66
2022/05/01 12:15:44;;;;;;;13.30;10.07;;;;;;;;;;5036568;28;20182;-66
2022/05/01 12:18:10;;;;;;;14.10;10.53;;;;;;;;;;5036256;28;20175;-65
2022/05/01 12:20:36;;;;;;;12.60;10.43;;;;;;;;;;5036395;28;20187;-68
2022/05/01 12:23:02;;;;;;;16.50;11.10;;;;;;;;;;5037098;28;20241;-65
2022/05/01 12:25:28;;;;;;;14.33;10.37;;;;;;;;;;5036464;28;20179;-65
2022/05/01 12:27:54;;;;;;;12.37;10.10;;;;;;;;;;5036094;28;20710;-66
2022/05/01 12:30:24;;;;;;;11.93;10.20;;;;;;;;;;5018398;28;20269;-66
2022/05/01 12:32:53;;;;;;;13.60;10.93;;;;;;;;;;5036382;28;20725;-65
2022/05/01 12:35:19;;;;;;;14.70;10.13;;;;;;;;;;5018248;28;20642;-68
2022/05/01 12:37:48;;;;;;;13.00;10.10;;;;;;;;;;5018430;28;20547;-66
2022/05/01 12:43:50;;;;;;;14.20;11.20;;;;;;;;;;5035853;28;20187;-67
2022/05/01 12:45:45;;;;;;;12.57;10.50;;;;;;;;;;5035831;28;20710;-67
2022/05/01 12:48:12;;;;;;;12.63;10.50;;;;;;;;;;5017973;28;20214;-66
2022/05/01 12:50:38;;;;;;;14.23;10.70;;;;;;;;;;5017973;28;20183;-65
2022/05/01 12:53:23;;;;;;;12.30;10.03;;;;;;;;;;5035847;28;20199;-65
2022/05/01 12:55:49;;;;;;;12.73;9.80;;;;;;;;;;5035611;28;20193;-69
2022/05/01 12:58:15;;;;;;;11.93;10.40;;;;;;;;;;5035955;28;20179;-66
2022/05/01 13:00:42;;;;;;;14.80;10.93;;;;;;;;;;5017879;28;20555;-66
2022/05/01 13:03:25;;;;;;;13.17;10.63;;;;;;;;;;5017751;28;20210;-67
2022/05/01 13:06:10;;;;;;;13.80;11.40;;;;;;;;;;5035554;28;20163;-67
2022/05/01 13:08:40;;;;;;;12.93;11.10;;;;;;;;;;5035297;28;20203;-65
2022/05/01 13:11:09;;;;;;;13.40;11.27;;;;;;;;;;5017641;28;20661;-64
2022/05/01 13:13:44;;;;;;;13.37;10.70;;;;;;;;;;5035268;28;20187;-66
2022/05/01 13:16:11;;;;;;;15.03;11.93;;;;;;;;;;5035260;28;20178;-65
2022/05/01 13:18:37;;;;;;;15.37;12.07;;;;;;;;;;5035343;28;20664;-64
2022/05/01 13:21:03;;;;;;;14.53;12.43;;;;;;;;;;5017099;28;20194;-65
2022/05/01 13:23:29;;;;;;;12.83;10.70;;;;;;;;;;5017558;28;20256;-65
2022/05/01 13:25:55;;;;;;;11.90;10.13;;;;;;;;;;5035215;28;20179;-66
2022/05/01 13:28:22;;;;;;;12.07;10.67;;;;;;;;;;5017587;28;20236;-66
2022/05/01 13:30:48;;;;;;;14.40;11.27;;;;;;;;;;5035222;28;20245;-65
2022/05/01 13:33:13;;;;;;;16.07;11.33;;;;;;;;;;5035128;28;20203;-65
2022/05/01 13:35:39;;;;;;;13.13;10.27;;;;;;;;;;5036206;28;20225;-65
2022/05/01 13:38:05;;;;;;;14.20;11.63;;;;;;;;;;5036195;28;20183;-65
2022/05/01 13:46:01;;;;;;;14.00;11.10;;;;;;;;;;5034799;28;20182;-65
2022/05/01 13:48:28;;;;;;;13.80;11.13;;;;;;;;;;5042174;28;20199;-65
2022/05/01 13:50:54;;;;;;;13.10;10.77;;;;;;;;;;5034607;28;20229;-65
2022/05/01 13:53:20;;;;;;;14.90;10.53;;;;;;;;;;5016867;28;20199;-64
2022/05/01 13:55:46;;;;;;;13.07;10.37;;;;;;;;;;5016742;28;20285;-66
2022/05/01 13:58:12;;;;;;;14.70;11.23;;;;;;;;;;5016702;28;20209;-66
2022/05/01 14:00:38;;;;;;;11.33;9.50;;;;;;;;;;5016631;28;20286;-66
2022/05/01 14:03:10;;;;;;;14.23;10.43;;;;;;;;;;5034367;28;20203;-66
2022/05/01 14:05:37;;;;;;;16.60;10.27;;;;;;;;;;5016553;28;20671;-66
2022/05/01 14:08:03;;;;;;;14.37;10.40;;;;;;;;;;5034110;28;20207;-66
2022/05/01 14:10:29;;;;;;;12.87;11.03;;;;;;;;;;5034039;28;20182;-66
2022/05/01 14:12:54;;;;;;;15.20;10.43;;;;;;;;;;5016443;28;20202;-66
2022/05/01 14:15:20;;;;;;;11.50;10.17;;;;;;;;;;5034170;28;20175;-66
2022/05/01 14:17:46;;;;;;;13.90;10.87;;;;;;;;;;5016239;28;20278;-66
2022/05/01 14:20:12;;;;;;;13.60;10.73;;;;;;;;;;5033947;28;20187;-66
2022/05/01 14:22:40;;;;;;;13.47;9.87;;;;;;;;;;5034282;28;20617;-65
2022/05/01 14:25:08;;;;;;;14.93;10.77;;;;;;;;;;5016264;28;20192;-66
2022/05/01 14:27:34;;;;;;;12.33;9.70;;;;;;;;;;5034247;28;20203;-66
2022/05/01 14:30:00;;;;;;;13.40;10.97;;;;;;;;;;5033609;28;20211;-66
2022/05/01 14:32:32;;;;;;;15.63;11.67;;;;;;;;;;5033111;28;20198;-66
2022/05/01 14:35:00;;;;;;;14.67;11.53;;;;;;;;;;5034200;28;20167;-67
2022/05/01 14:37:30;;;;;;;14.37;11.37;;;;;;;;;;5034042;28;20190;-65
2022/05/01 14:39:57;;;;;;;12.60;10.87;;;;;;;;;;5015854;28;20592;-66
2022/05/01 14:42:30;;;;;;;13.93;10.80;;;;;;;;;;5033146;28;20230;-65
2022/05/01 14:44:59;;;;;;;15.23;10.97;;;;;;;;;;5015653;28;20596;-65
2022/05/01 14:47:27;;;;;;;14.50;10.97;;;;;;;;;;5033526;28;20203;-66
2022/05/01 14:50:03;;;;;;;13.27;11.07;;;;;;;;;;5033426;28;20214;-66
2022/05/01 14:52:30;;;;;;;14.57;12.23;;;;;;;;;;5034084;28;20197;-65
2022/05/01 14:54:57;;;;;;;12.50;10.40;;;;;;;;;;5033742;28;20266;-65
2022/05/01 14:57:24;;;;;;;13.50;11.13;;;;;;;;;;5015753;28;20183;-65
2022/05/01 15:08:16;;;;;;;13.33;10.43;;;;;;;;;;5033796;28;20210;-66
2022/05/01 15:10:44;;;;;;;12.63;10.40;;;;;;;;;;5033755;28;20175;-66
2022/05/01 15:13:10;;;;;;;12.43;10.17;;;;;;;;;;5015629;28;20744;-66
2022/05/01 15:15:48;;;;;;;12.37;9.57;;;;;;;;;;5015531;28;20175;-67
2022/05/01 15:18:17;;;;;;;13.40;10.50;;;;;;;;;;5033251;28;20179;-65
2022/05/01 15:20:48;;;;;;;12.03;10.20;;;;;;;;;;5033214;28;20644;-65